Shinkai Maru — JJ4012 — position and weather

sailwx.info

Track history (hours):
 
Tides and Currents Weather Stations Pressure Air Temp Water Temp Dewpoint Dewpoint Depression Visibility Wind Speed Wind Dir Waves Ship Positions

Shinkai Maru

Last reported at 2017-Mar-27 03:04 UTC. Time now 2017-Mar-27 12:41 UTC.
Position N 34°14' E 134°59'.

Length 76 m; draft 4.1 m.

Type: Cargo ship. MMSI: 431301346.

Date/timePositionNaut miles runAvg speedWind from/ knotsBaromVisibWave heightAir tempDewpointWater temp
2017-Mar-27 03:04N 34°14' E 134°59'2012.8
2017-Mar-27 01:33N 34°33' E 135°03'14 0.3
2017-Mar-25 08:20N 34°41' E 134°50'1111.3
2017-Mar-25 07:23N 34°37' E 135°02'1011.6
2017-Mar-25 06:33N 34°37' E 135°13'5 5.3
2017-Mar-25 05:33N 34°42' E 135°15'0 0.0
2017-Mar-25 04:33N 34°42' E 135°15'0 0.0
2017-Mar-25 03:33N 34°42' E 135°15'0 0.0
2017-Mar-25 02:33N 34°42' E 135°15'0 0.0
2017-Mar-25 01:33N 34°42' E 135°15'0 0.0
2017-Mar-25 00:33N 34°42' E 135°15'0 0.0
2017-Mar-24 23:27N 34°42' E 135°15'2 1.9
2017-Mar-24 22:33N 34°41' E 135°15'2 1.6
2017-Mar-24 21:16N 34°39' E 135°15'0 0.0
2017-Mar-24 20:28N 34°39' E 135°15'0 0.0
2017-Mar-24 19:28N 34°39' E 135°15'0 0.0
2017-Mar-24 18:28N 34°39' E 135°15'0 0.0
2017-Mar-24 17:28N 34°39' E 135°15'0 0.0
2017-Mar-24 16:22N 34°39' E 135°15'0 0.0
2017-Mar-24 15:28N 34°39' E 135°15'0 0.1
2017-Mar-24 14:28N 34°39' E 135°15'0 0.0
2017-Mar-24 13:28N 34°39' E 135°15'0 0.0
2017-Mar-24 12:22N 34°39' E 135°15'0 0.1
2017-Mar-24 11:28N 34°39' E 135°15'0 0.0
2017-Mar-24 10:28N 34°39' E 135°15'0 0.0
2017-Mar-24 09:22N 34°39' E 135°15'0 0.1
2017-Mar-24 08:28N 34°39' E 135°15'5 5.9
2017-Mar-24 07:33N 34°35' E 135°10'1311.7
2017-Mar-24 06:29N 34°37' E 134°55'1 0.0
2017-Mar-23 01:32N 34°37' E 134°54'10 9.8
2017-Mar-23 00:33N 34°34' E 135°05'2412.1
2017-Mar-22 22:33N 34°11' E 134°59'  
2017-Mar-18 22:33N 34°29' E 135°02'9 9.0
2017-Mar-18 21:31N 34°36' E 134°55'7 0.6
2017-Mar-18 10:08N 34°40' E 134°49'6 9.9
2017-Mar-18 09:33N 34°37' E 134°55'9 8.9
2017-Mar-18 08:33N 34°34' E 135°06'2211.2
2017-Mar-18 06:33N 34°12' E 134°60'235 9.4
2017-Mar-17 05:28N 35°05' E 139°39'1112.4
2017-Mar-17 04:33N 35°14' E 139°46'1111.2
2017-Mar-17 03:33N 35°25' E 139°44'  
Track history (hours):
 
Tides and Currents Weather Stations Pressure Air Temp Water Temp Dewpoint Dewpoint Depression Visibility Wind Speed Wind Dir Waves Ship Positions

Shinkai Maru

Last reported at 2017-Mar-27 03:04 UTC. Time now 2017-Mar-27 12:41 UTC.
Position N 34°14' E 134°59'.

Length 76 m; draft 4.1 m.

Type: Cargo ship. MMSI: 431301346.

Date/timePositionNaut miles runAvg speedWind from/ knotsBaromVisibWave heightAir tempDewpointWater temp
2017-Mar-27 03:04N 34°14' E 134°59'2012.8
2017-Mar-27 01:33N 34°33' E 135°03'14 0.3
2017-Mar-25 08:20N 34°41' E 134°50'1111.3
2017-Mar-25 07:23N 34°37' E 135°02'1011.6
2017-Mar-25 06:33N 34°37' E 135°13'5 5.3
2017-Mar-25 05:33N 34°42' E 135°15'0 0.0
2017-Mar-25 04:33N 34°42' E 135°15'0 0.0
2017-Mar-25 03:33N 34°42' E 135°15'0 0.0
2017-Mar-25 02:33N 34°42' E 135°15'0 0.0
2017-Mar-25 01:33N 34°42' E 135°15'0 0.0
2017-Mar-25 00:33N 34°42' E 135°15'0 0.0
2017-Mar-24 23:27N 34°42' E 135°15'2 1.9
2017-Mar-24 22:33N 34°41' E 135°15'2 1.6
2017-Mar-24 21:16N 34°39' E 135°15'0 0.0
2017-Mar-24 20:28N 34°39' E 135°15'0 0.0
2017-Mar-24 19:28N 34°39' E 135°15'0 0.0
2017-Mar-24 18:28N 34°39' E 135°15'0 0.0
2017-Mar-24 17:28N 34°39' E 135°15'0 0.0
2017-Mar-24 16:22N 34°39' E 135°15'0 0.0
2017-Mar-24 15:28N 34°39' E 135°15'0 0.1
2017-Mar-24 14:28N 34°39' E 135°15'0 0.0
2017-Mar-24 13:28N 34°39' E 135°15'0 0.0
2017-Mar-24 12:22N 34°39' E 135°15'0 0.1
2017-Mar-24 11:28N 34°39' E 135°15'0 0.0
2017-Mar-24 10:28N 34°39' E 135°15'0 0.0
2017-Mar-24 09:22N 34°39' E 135°15'0 0.1
2017-Mar-24 08:28N 34°39' E 135°15'5 5.9
2017-Mar-24 07:33N 34°35' E 135°10'1311.7
2017-Mar-24 06:29N 34°37' E 134°55'1 0.0
2017-Mar-23 01:32N 34°37' E 134°54'10 9.8
2017-Mar-23 00:33N 34°34' E 135°05'2412.1
2017-Mar-22 22:33N 34°11' E 134°59'  
2017-Mar-18 22:33N 34°29' E 135°02'9 9.0
2017-Mar-18 21:31N 34°36' E 134°55'7 0.6
2017-Mar-18 10:08N 34°40' E 134°49'6 9.9
2017-Mar-18 09:33N 34°37' E 134°55'9 8.9
2017-Mar-18 08:33N 34°34' E 135°06'2211.2
2017-Mar-18 06:33N 34°12' E 134°60'235 9.4
2017-Mar-17 05:28N 35°05' E 139°39'1112.4
2017-Mar-17 04:33N 35°14' E 139°46'1111.2
2017-Mar-17 03:33N 35°25' E 139°44'  

Dump ship's entire track history